Time;durP1;ratioP1;P1;durP2;ratioP2;P2;SDS_P1;SDS_P2;PMS_P1;PMS_P2;Temp;Humidity;BMP_temperature;BMP_pressure;BME280_temperature;BME280_humidity;BME280_pressure;Samples;Min_cycle;Max_cycle;Signal;HPM_P1;HPM_P2
2023/06/09 00:01:47;;;;;;;14.63;7.60;;;;;;;;;;5043346;28;20055;-78
2023/06/09 00:04:13;;;;;;;17.73;7.35;;;;;;;;;;5035471;28;20065;-78
2023/06/09 00:06:40;;;;;;;21.52;7.65;;;;;;;;;;5036569;28;20037;-78
2023/06/09 00:09:06;;;;;;;21.60;8.52;;;;;;;;;;5048677;28;20045;-78
2023/06/09 00:11:35;;;;;;;16.25;7.38;;;;;;;;;;5055533;28;20451;-79
2023/06/09 00:14:02;;;;;;;16.23;7.28;;;;;;;;;;5015676;28;20404;-78
2023/06/09 00:16:28;;;;;;;18.10;8.38;;;;;;;;;;5028197;28;20049;-78
2023/06/09 00:18:57;;;;;;;15.68;6.90;;;;;;;;;;5036020;28;20049;-78
2023/06/09 00:21:25;;;;;;;21.08;8.18;;;;;;;;;;5019771;28;20096;-78
2023/06/09 00:23:52;;;;;;;17.27;8.38;;;;;;;;;;5028933;28;20410;-78
2023/06/09 00:26:18;;;;;;;19.30;8.88;;;;;;;;;;5036366;28;20053;-80
2023/06/09 00:28:44;;;;;;;23.13;8.05;;;;;;;;;;5035978;28;20041;-79
2023/06/09 00:31:11;;;;;;;20.25;8.10;;;;;;;;;;5033683;28;20160;-79
2023/06/09 00:33:37;;;;;;;21.25;8.18;;;;;;;;;;5035631;28;20049;-78
2023/06/09 00:36:03;;;;;;;17.15;8.18;;;;;;;;;;5044345;28;20112;-79
2023/06/09 00:38:29;;;;;;;15.25;7.57;;;;;;;;;;5027465;28;20081;-78
2023/06/09 00:40:55;;;;;;;16.85;7.53;;;;;;;;;;5038863;28;20050;-78
2023/06/09 00:43:21;;;;;;;17.35;8.18;;;;;;;;;;5038293;28;20504;-79
2023/06/09 00:45:47;;;;;;;18.58;7.15;;;;;;;;;;5034567;28;20041;-78
2023/06/09 00:48:13;;;;;;;17.02;7.20;;;;;;;;;;5034841;28;20391;-78
2023/06/09 00:50:40;;;;;;;18.48;7.10;;;;;;;;;;5044451;28;20041;-79
2023/06/09 00:53:08;;;;;;;17.58;7.35;;;;;;;;;;5054593;28;20532;-79
2023/06/09 00:55:34;;;;;;;19.17;7.47;;;;;;;;;;5048510;28;20117;-78
2023/06/09 00:58:01;;;;;;;21.13;8.63;;;;;;;;;;5033078;28;20526;-78
2023/06/09 01:00:28;;;;;;;20.77;8.48;;;;;;;;;;5034871;28;20045;-80
2023/06/09 01:03:00;;;;;;;17.45;7.75;;;;;;;;;;5038157;28;20051;-78
2023/06/09 01:05:34;;;;;;;16.63;7.93;;;;;;;;;;5041149;28;20049;-78
2023/06/09 01:08:18;;;;;;;17.13;7.28;;;;;;;;;;5034826;28;20067;-79
2023/06/09 01:10:48;;;;;;;16.25;7.97;;;;;;;;;;5034686;28;20050;-78
2023/06/09 01:13:20;;;;;;;15.20;8.23;;;;;;;;;;5015318;28;20468;-79
2023/06/09 01:15:51;;;;;;;17.42;7.85;;;;;;;;;;5016816;28;20089;-79
2023/06/09 01:18:20;;;;;;;20.15;8.23;;;;;;;;;;5034741;28;20521;-79
2023/06/09 01:21:08;;;;;;;22.02;8.63;;;;;;;;;;5035301;28;20045;-78
2023/06/09 01:23:44;;;;;;;19.38;7.88;;;;;;;;;;5032860;28;20052;-78
2023/06/09 01:26:11;;;;;;;18.15;8.20;;;;;;;;;;5036523;28;20053;-78
2023/06/09 01:28:38;;;;;;;15.93;7.63;;;;;;;;;;5040709;28;20048;-79
2023/06/09 01:31:04;;;;;;;18.13;8.88;;;;;;;;;;5039602;28;20144;-78
2023/06/09 01:33:30;;;;;;;18.42;8.38;;;;;;;;;;5040382;28;20049;-79
2023/06/09 01:35:57;;;;;;;18.77;8.07;;;;;;;;;;5040942;28;20125;-78
2023/06/09 01:38:24;;;;;;;21.55;9.02;;;;;;;;;;5040617;28;20107;-79
2023/06/09 01:40:50;;;;;;;18.65;9.10;;;;;;;;;;5052093;28;20071;-79
2023/06/09 01:43:16;;;;;;;24.65;9.38;;;;;;;;;;5061508;28;20099;-79
2023/06/09 01:45:42;;;;;;;19.92;9.02;;;;;;;;;;5033740;28;20049;-79
2023/06/09 01:48:12;;;;;;;25.95;10.40;;;;;;;;;;5021682;28;20099;-79
2023/06/09 01:50:42;;;;;;;19.38;9.82;;;;;;;;;;5032494;28;20053;-78
2023/06/09 01:53:13;;;;;;;21.20;10.40;;;;;;;;;;5043063;28;20116;-79
2023/06/09 01:55:45;;;;;;;21.58;9.50;;;;;;;;;;5038335;28;20056;-79
2023/06/09 01:58:17;;;;;;;21.42;9.85;;;;;;;;;;5041651;28;20422;-78
2023/06/09 02:00:45;;;;;;;23.15;9.63;;;;;;;;;;5025538;28;20129;-78
2023/06/09 02:03:12;;;;;;;22.58;10.30;;;;;;;;;;5020213;28;20045;-79
2023/06/09 02:05:38;;;;;;;20.42;10.27;;;;;;;;;;5045582;28;20175;-79
2023/06/09 02:08:04;;;;;;;22.35;10.27;;;;;;;;;;5040812;28;20049;-80
2023/06/09 02:10:31;;;;;;;23.92;10.82;;;;;;;;;;5041119;28;20042;-78
2023/06/09 02:12:57;;;;;;;21.77;10.63;;;;;;;;;;5045374;28;20465;-78
2023/06/09 02:15:23;;;;;;;21.73;10.68;;;;;;;;;;5061683;28;20048;-78
2023/06/09 02:17:49;;;;;;;20.67;10.82;;;;;;;;;;5046866;28;20037;-78
2023/06/09 02:20:15;;;;;;;25.63;11.00;;;;;;;;;;5051026;28;20044;-79
2023/06/09 02:22:41;;;;;;;31.25;10.00;;;;;;;;;;5030159;28;20064;-78
2023/06/09 02:25:08;;;;;;;26.38;10.52;;;;;;;;;;5032707;28;20513;-78
2023/06/09 02:27:34;;;;;;;24.63;11.25;;;;;;;;;;5049848;28;20041;-78
2023/06/09 02:30:00;;;;;;;26.63;10.85;;;;;;;;;;5061836;28;20045;-78
2023/06/09 02:32:26;;;;;;;22.80;10.60;;;;;;;;;;5061482;28;20056;-78
2023/06/09 02:34:52;;;;;;;23.63;11.13;;;;;;;;;;5061046;28;20123;-80
2023/06/09 02:37:18;;;;;;;21.13;9.57;;;;;;;;;;5040309;28;20050;-79
2023/06/09 02:39:44;;;;;;;21.30;9.07;;;;;;;;;;5044568;28;20042;-79
2023/06/09 02:42:10;;;;;;;20.98;10.05;;;;;;;;;;5037576;28;20045;-79
2023/06/09 02:44:41;;;;;;;21.67;8.68;;;;;;;;;;5036689;28;20056;-78
2023/06/09 02:47:07;;;;;;;20.60;8.57;;;;;;;;;;5037119;28;20041;-78
2023/06/09 02:49:33;;;;;;;21.08;8.88;;;;;;;;;;5037009;28;20077;-78
2023/06/09 02:51:59;;;;;;;17.42;8.57;;;;;;;;;;5036860;28;20045;-79
2023/06/09 02:54:26;;;;;;;23.42;10.32;;;;;;;;;;5044894;28;20042;-79
2023/06/09 02:56:52;;;;;;;19.90;8.70;;;;;;;;;;5037462;28;20125;-78
2023/06/09 02:59:19;;;;;;;21.83;9.68;;;;;;;;;;5037672;28;20046;-78
2023/06/09 03:01:45;;;;;;;18.90;9.00;;;;;;;;;;5037505;28;20048;-78
2023/06/09 03:04:11;;;;;;;18.10;8.38;;;;;;;;;;5037121;28;20049;-78
2023/06/09 03:06:39;;;;;;;16.10;8.30;;;;;;;;;;5045237;28;20045;-78
2023/06/09 03:09:06;;;;;;;20.38;8.38;;;;;;;;;;5037058;28;20055;-78
2023/06/09 03:11:32;;;;;;;20.13;8.57;;;;;;;;;;5057136;28;20045;-78
2023/06/09 03:13:58;;;;;;;24.35;8.50;;;;;;;;;;5050514;28;20048;-79
2023/06/09 03:16:24;;;;;;;20.70;8.90;;;;;;;;;;5037431;28;20048;-79
2023/06/09 03:18:50;;;;;;;22.40;8.82;;;;;;;;;;5047568;28;20399;-78
2023/06/09 03:21:16;;;;;;;18.98;8.82;;;;;;;;;;5057322;28;20120;-78
2023/06/09 03:23:42;;;;;;;22.77;8.57;;;;;;;;;;5057722;28;20051;-78
2023/06/09 03:26:09;;;;;;;23.48;9.77;;;;;;;;;;5056207;28;20081;-78
2023/06/09 03:28:35;;;;;;;19.52;9.00;;;;;;;;;;5051049;28;20042;-78
2023/06/09 03:31:01;;;;;;;18.35;8.30;;;;;;;;;;5036105;28;20072;-78
2023/06/09 03:33:27;;;;;;;18.88;8.05;;;;;;;;;;5043116;28;20075;-78
2023/06/09 03:35:53;;;;;;;16.08;8.93;;;;;;;;;;5056565;28;20052;-80
2023/06/09 03:38:19;;;;;;;22.40;9.77;;;;;;;;;;5057472;28;20049;-78
2023/06/09 03:40:45;;;;;;;17.77;9.10;;;;;;;;;;5056950;28;20041;-78
2023/06/09 03:43:11;;;;;;;17.60;9.23;;;;;;;;;;5051991;28;20132;-78
2023/06/09 03:45:38;;;;;;;20.45;9.40;;;;;;;;;;5037703;28;20076;-78
2023/06/09 03:48:05;;;;;;;20.65;9.02;;;;;;;;;;5035935;28;20105;-78
2023/06/09 03:50:31;;;;;;;22.70;9.20;;;;;;;;;;5045131;28;20078;-78
2023/06/09 03:52:57;;;;;;;17.65;7.93;;;;;;;;;;5055363;28;20052;-78
2023/06/09 03:55:24;;;;;;;21.42;7.65;;;;;;;;;;5057356;28;20053;-78
2023/06/09 03:57:51;;;;;;;16.88;7.72;;;;;;;;;;5053076;28;20406;-80
2023/06/09 04:00:17;;;;;;;17.05;8.52;;;;;;;;;;5037689;28;20048;-78
2023/06/09 04:02:43;;;;;;;16.13;7.47;;;;;;;;;;5040452;28;20041;-79
2023/06/09 04:05:10;;;;;;;16.63;7.93;;;;;;;;;;5048464;28;20487;-78
2023/06/09 04:07:36;;;;;;;20.33;8.15;;;;;;;;;;5056929;28;20045;-79
2023/06/09 04:10:04;;;;;;;21.45;9.20;;;;;;;;;;5055965;28;20041;-78
2023/06/09 04:12:30;;;;;;;15.88;8.45;;;;;;;;;;5056441;28;20040;-78
2023/06/09 04:14:57;;;;;;;16.02;7.93;;;;;;;;;;5031846;28;20042;-79
2023/06/09 04:17:23;;;;;;;16.02;8.50;;;;;;;;;;5039255;28;20045;-78
2023/06/09 04:19:49;;;;;;;15.70;7.93;;;;;;;;;;5051503;28;20128;-79
2023/06/09 04:22:15;;;;;;;19.40;9.30;;;;;;;;;;5056574;28;20441;-78
2023/06/09 04:24:41;;;;;;;20.92;9.43;;;;;;;;;;5057879;28;20041;-78
2023/06/09 04:27:07;;;;;;;20.75;9.88;;;;;;;;;;5056513;28;20072;-79
2023/06/09 04:29:33;;;;;;;22.25;10.18;;;;;;;;;;5042795;28;20045;-78
2023/06/09 04:32:00;;;;;;;19.63;8.93;;;;;;;;;;5051304;28;20136;-79
2023/06/09 04:34:37;;;;;;;26.45;10.15;;;;;;;;;;5040305;28;20042;-79
2023/06/09 04:37:04;;;;;;;20.65;9.48;;;;;;;;;;5037942;28;20045;-78
2023/06/09 04:39:30;;;;;;;18.75;8.00;;;;;;;;;;5035949;28;20577;-78
2023/06/09 04:41:56;;;;;;;16.50;7.30;;;;;;;;;;5036418;28;20152;-78
2023/06/09 04:44:23;;;;;;;17.80;7.30;;;;;;;;;;5026686;28;20050;-79
2023/06/09 04:46:49;;;;;;;16.20;7.38;;;;;;;;;;5019543;28;20068;-78
2023/06/09 04:49:16;;;;;;;14.45;7.30;;;;;;;;;;5050827;28;20095;-78
2023/06/09 04:51:46;;;;;;;19.35;7.68;;;;;;;;;;5039178;28;20051;-78
2023/06/09 04:54:16;;;;;;;14.00;7.18;;;;;;;;;;5046718;28;20064;-78
2023/06/09 04:56:43;;;;;;;17.80;7.75;;;;;;;;;;5058281;28;20053;-78
2023/06/09 04:59:12;;;;;;;18.77;6.78;;;;;;;;;;5047969;28;20064;-79
2023/06/09 05:01:46;;;;;;;15.32;6.88;;;;;;;;;;5047030;28;20068;-79
2023/06/09 05:04:12;;;;;;;14.15;7.80;;;;;;;;;;5041865;28;20510;-79
2023/06/09 05:06:38;;;;;;;16.80;8.10;;;;;;;;;;5056891;28;20049;-79
2023/06/09 05:09:05;;;;;;;16.98;7.65;;;;;;;;;;5057478;28;20098;-79
2023/06/09 05:11:31;;;;;;;17.98;7.68;;;;;;;;;;5048555;28;20056;-79
2023/06/09 05:13:57;;;;;;;16.52;7.20;;;;;;;;;;5035751;28;20061;-79
2023/06/09 05:16:25;;;;;;;14.68;7.05;;;;;;;;;;5034859;28;20065;-79
2023/06/09 05:18:52;;;;;;;17.23;6.68;;;;;;;;;;5038494;28;20134;-79
2023/06/09 05:21:18;;;;;;;16.73;7.63;;;;;;;;;;5056882;28;20049;-79
2023/06/09 05:23:46;;;;;;;16.25;7.10;;;;;;;;;;5056256;28;20071;-79
2023/06/09 05:26:12;;;;;;;12.95;7.15;;;;;;;;;;5056821;28;20451;-78
2023/06/09 05:28:38;;;;;;;16.55;7.22;;;;;;;;;;5057176;28;20470;-78
2023/06/09 05:31:05;;;;;;;17.67;7.53;;;;;;;;;;5048245;28;20050;-79
2023/06/09 05:33:31;;;;;;;17.10;7.40;;;;;;;;;;5038723;28;20124;-79
2023/06/09 05:35:58;;;;;;;17.70;8.07;;;;;;;;;;5055682;28;20129;-79
2023/06/09 05:38:25;;;;;;;17.13;7.32;;;;;;;;;;5054733;28;20068;-78
2023/06/09 05:40:52;;;;;;;16.30;7.22;;;;;;;;;;5042257;28;20042;-79
2023/06/09 05:43:18;;;;;;;15.82;6.93;;;;;;;;;;5040008;28;20041;-81
2023/06/09 05:45:44;;;;;;;14.68;6.57;;;;;;;;;;5036918;28;20051;-79
2023/06/09 05:48:10;;;;;;;20.05;7.20;;;;;;;;;;5033635;28;20045;-78
2023/06/09 05:50:37;;;;;;;17.00;7.65;;;;;;;;;;5040058;28;20445;-78
2023/06/09 05:53:04;;;;;;;18.25;7.10;;;;;;;;;;5058926;28;20044;-79
2023/06/09 05:55:30;;;;;;;25.85;10.23;;;;;;;;;;5054528;28;20045;-80
2023/06/09 05:57:59;;;;;;;19.08;8.10;;;;;;;;;;5043297;28;20053;-80
2023/06/09 06:00:29;;;;;;;14.15;6.35;;;;;;;;;;5034274;28;20053;-79
2023/06/09 06:02:55;;;;;;;14.05;6.65;;;;;;;;;;5033346;28;20045;-78
2023/06/09 06:05:21;;;;;;;17.65;7.22;;;;;;;;;;5036630;28;20098;-78
2023/06/09 06:07:47;;;;;;;15.95;6.30;;;;;;;;;;5052198;28;20537;-78
2023/06/09 06:10:14;;;;;;;15.45;6.28;;;;;;;;;;5035689;28;20053;-78
2023/06/09 06:12:40;;;;;;;16.50;6.63;;;;;;;;;;5033186;28;20112;-78
2023/06/09 06:15:06;;;;;;;14.88;6.75;;;;;;;;;;5037754;28;20410;-78
2023/06/09 06:17:32;;;;;;;16.45;6.68;;;;;;;;;;5038317;28;20041;-78
2023/06/09 06:19:59;;;;;;;16.67;7.03;;;;;;;;;;5053575;28;20056;-78
2023/06/09 06:22:25;;;;;;;14.85;7.07;;;;;;;;;;5047200;28;20479;-79
2023/06/09 06:24:51;;;;;;;14.95;6.50;;;;;;;;;;5039269;28;20052;-79
2023/06/09 06:27:17;;;;;;;18.65;7.25;;;;;;;;;;5037514;28;20087;-79
2023/06/09 06:29:43;;;;;;;15.45;7.10;;;;;;;;;;5041139;28;20101;-79
2023/06/09 06:32:10;;;;;;;16.27;6.53;;;;;;;;;;5040770;28;20057;-79
2023/06/09 06:34:36;;;;;;;11.07;6.45;;;;;;;;;;5045098;28;20495;-79
2023/06/09 06:37:02;;;;;;;12.32;6.55;;;;;;;;;;5048901;28;20045;-79
2023/06/09 06:39:28;;;;;;;12.05;6.13;;;;;;;;;;5038063;28;20071;-78
2023/06/09 06:41:55;;;;;;;15.20;6.80;;;;;;;;;;5038941;28;20152;-79
2023/06/09 06:44:21;;;;;;;12.73;5.50;;;;;;;;;;5048184;28;20063;-79
2023/06/09 06:46:47;;;;;;;12.70;5.93;;;;;;;;;;5059404;28;20049;-79
2023/06/09 06:49:13;;;;;;;15.80;6.75;;;;;;;;;;5054006;28;20402;-79
2023/06/09 06:51:39;;;;;;;13.88;6.25;;;;;;;;;;5039862;28;20049;-79
2023/06/09 06:54:05;;;;;;;14.00;5.97;;;;;;;;;;5040699;28;20037;-79
2023/06/09 06:56:31;;;;;;;13.18;6.25;;;;;;;;;;5017657;28;20050;-79
2023/06/09 06:58:57;;;;;;;11.88;6.00;;;;;;;;;;5037226;28;20045;-80
2023/06/09 07:01:24;;;;;;;13.95;6.32;;;;;;;;;;5057126;28;20045;-79
2023/06/09 07:03:50;;;;;;;14.00;6.35;;;;;;;;;;5049667;28;20055;-80
2023/06/09 07:06:17;;;;;;;16.70;6.40;;;;;;;;;;5036774;28;20045;-77
2023/06/09 07:08:45;;;;;;;14.25;6.53;;;;;;;;;;5040722;28;20041;-77
2023/06/09 07:11:11;;;;;;;13.85;6.38;;;;;;;;;;5056572;28;20049;-78
2023/06/09 07:13:38;;;;;;;13.95;6.15;;;;;;;;;;5054377;28;20037;-78
2023/06/09 07:16:04;;;;;;;10.65;6.65;;;;;;;;;;5053023;28;20045;-82
2023/06/09 07:18:31;;;;;;;20.98;6.97;;;;;;;;;;5043273;28;20045;-84
2023/06/09 07:20:57;;;;;;;13.85;6.35;;;;;;;;;;5034767;28;20080;-78
2023/06/09 07:23:23;;;;;;;13.73;6.53;;;;;;;;;;5034596;28;20069;-80
2023/06/09 07:25:49;;;;;;;15.35;5.90;;;;;;;;;;5017972;28;20083;-78
2023/06/09 07:28:18;;;;;;;10.05;5.78;;;;;;;;;;5031791;28;20417;-78
2023/06/09 07:30:44;;;;;;;14.13;6.07;;;;;;;;;;5050330;28;20442;-81
2023/06/09 07:33:10;;;;;;;16.15;6.53;;;;;;;;;;5055663;28;20051;-78
2023/06/09 07:35:38;;;;;;;15.18;6.03;;;;;;;;;;5049470;28;20076;-77
2023/06/09 07:38:04;;;;;;;15.15;6.10;;;;;;;;;;5054639;28;20084;-78
2023/06/09 07:40:30;;;;;;;11.45;6.47;;;;;;;;;;5045723;28;20056;-77
2023/06/09 07:42:56;;;;;;;11.93;6.10;;;;;;;;;;5033549;28;20096;-78
2023/06/09 07:45:22;;;;;;;12.30;5.88;;;;;;;;;;5022614;28;20415;-77
2023/06/09 07:47:48;;;;;;;16.15;6.15;;;;;;;;;;5039810;28;20048;-78
2023/06/09 07:50:15;;;;;;;11.93;5.93;;;;;;;;;;5033737;28;20045;-77
2023/06/09 07:52:41;;;;;;;15.48;6.82;;;;;;;;;;5054393;28;20045;-78
2023/06/09 07:55:07;;;;;;;16.77;6.35;;;;;;;;;;5054419;28;20048;-78
2023/06/09 07:57:34;;;;;;;18.65;6.28;;;;;;;;;;5054751;28;20048;-79
2023/06/09 08:00:00;;;;;;;13.32;6.10;;;;;;;;;;5054166;28;20053;-81
2023/06/09 08:02:26;;;;;;;15.73;6.82;;;;;;;;;;5047388;28;20040;-79
2023/06/09 08:04:52;;;;;;;28.85;7.65;;;;;;;;;;5023290;28;20137;-79
2023/06/09 08:07:18;;;;;;;17.02;6.75;;;;;;;;;;5021533;28;20091;-79
2023/06/09 08:09:44;;;;;;;13.65;6.90;;;;;;;;;;5036651;28;20041;-80
2023/06/09 08:12:11;;;;;;;13.77;6.53;;;;;;;;;;5037199;28;20045;-80
2023/06/09 08:14:38;;;;;;;12.63;6.25;;;;;;;;;;5035208;28;20048;-79
2023/06/09 08:17:05;;;;;;;73.75;12.30;;;;;;;;;;5036524;28;20050;-79
2023/06/09 08:19:31;;;;;;;15.23;6.32;;;;;;;;;;5032674;28;20110;-79
2023/06/09 08:21:57;;;;;;;14.43;6.85;;;;;;;;;;5034955;28;20045;-79
2023/06/09 08:24:24;;;;;;;12.63;6.50;;;;;;;;;;5049012;28;20061;-79
2023/06/09 08:26:51;;;;;;;12.45;6.07;;;;;;;;;;5057219;28;20045;-79
2023/06/09 08:29:18;;;;;;;15.35;7.45;;;;;;;;;;5040924;28;20133;-79
2023/06/09 08:31:44;;;;;;;13.38;6.07;;;;;;;;;;5033061;28;20060;-80
2023/06/09 08:34:10;;;;;;;15.52;6.38;;;;;;;;;;5013952;28;20088;-80
2023/06/09 08:36:37;;;;;;;15.70;6.57;;;;;;;;;;4996719;28;20046;-78
2023/06/09 08:39:03;;;;;;;45.25;10.35;;;;;;;;;;4998191;28;20185;-79
2023/06/09 08:41:34;;;;;;;11.60;6.65;;;;;;;;;;5019172;28;20049;-80
2023/06/09 08:44:01;;;;;;;9.48;6.05;;;;;;;;;;5051140;28;20198;-79
2023/06/09 08:46:29;;;;;;;15.35;6.32;;;;;;;;;;5057129;28;20045;-79
2023/06/09 08:48:56;;;;;;;16.88;8.27;;;;;;;;;;5056526;28;20511;-79
2023/06/09 08:51:22;;;;;;;11.68;6.88;;;;;;;;;;5040100;28;20048;-79
2023/06/09 08:53:54;;;;;;;15.60;6.72;;;;;;;;;;5039360;28;20487;-80
2023/06/09 08:56:23;;;;;;;16.00;7.13;;;;;;;;;;5044666;28;20073;-78
2023/06/09 08:58:50;;;;;;;17.92;7.85;;;;;;;;;;5044495;28;20483;-79
2023/06/09 09:01:17;;;;;;;13.93;6.65;;;;;;;;;;5056593;28;20052;-79
2023/06/09 09:03:43;;;;;;;14.48;6.13;;;;;;;;;;5039870;28;20053;-84
2023/06/09 09:06:10;;;;;;;12.80;6.50;;;;;;;;;;5036317;28;20052;-78
2023/06/09 09:08:36;;;;;;;14.25;7.13;;;;;;;;;;5033926;28;20041;-77
2023/06/09 09:11:02;;;;;;;11.75;6.32;;;;;;;;;;5018418;28;20053;-78
2023/06/09 09:13:30;;;;;;;13.68;6.57;;;;;;;;;;5025919;28;20052;-78
2023/06/09 09:15:56;;;;;;;13.68;6.38;;;;;;;;;;5035104;28;20141;-79
2023/06/09 09:18:22;;;;;;;14.70;6.53;;;;;;;;;;5032567;28;20041;-79
2023/06/09 09:20:48;;;;;;;14.43;6.55;;;;;;;;;;5032533;28;20058;-79
2023/06/09 09:23:14;;;;;;;11.75;6.35;;;;;;;;;;5037772;28;20046;-79
2023/06/09 09:25:41;;;;;;;15.02;6.85;;;;;;;;;;5025426;28;20547;-79
2023/06/09 09:28:07;;;;;;;15.63;6.90;;;;;;;;;;5051349;28;20045;-78
2023/06/09 09:30:42;;;;;;;13.02;6.30;;;;;;;;;;5034773;28;20056;-79
2023/06/09 09:33:13;;;;;;;14.70;6.72;;;;;;;;;;5041290;28;20044;-79
2023/06/09 09:35:39;;;;;;;13.90;6.47;;;;;;;;;;5048402;28;20029;-78
2023/06/09 09:38:11;;;;;;;19.60;7.22;;;;;;;;;;5025027;28;20044;-79
2023/06/09 09:40:41;;;;;;;12.50;6.57;;;;;;;;;;5053672;28;20052;-81
2023/06/09 09:43:10;;;;;;;14.20;6.82;;;;;;;;;;5034820;28;20042;-79
2023/06/09 09:45:38;;;;;;;12.10;6.45;;;;;;;;;;5024218;28;20068;-78
2023/06/09 09:48:11;;;;;;;15.27;6.63;;;;;;;;;;5025566;28;20451;-78
2023/06/09 09:50:37;;;;;;;13.38;6.80;;;;;;;;;;5033515;28;20399;-78
2023/06/09 09:53:04;;;;;;;11.82;6.55;;;;;;;;;;5039823;28;20111;-78
2023/06/09 09:55:30;;;;;;;14.07;6.75;;;;;;;;;;5036579;28;20574;-79
2023/06/09 09:57:59;;;;;;;12.65;6.55;;;;;;;;;;5026272;28;20057;-78
2023/06/09 10:00:26;;;;;;;17.38;6.60;;;;;;;;;;5024753;28;20045;-78
2023/06/09 10:02:53;;;;;;;11.95;6.38;;;;;;;;;;5035643;28;20045;-78
2023/06/09 10:05:21;;;;;;;12.38;6.68;;;;;;;;;;5036660;28;20053;-78
2023/06/09 10:07:51;;;;;;;14.68;6.25;;;;;;;;;;5037763;28;20075;-80
2023/06/09 10:10:18;;;;;;;14.75;6.75;;;;;;;;;;5050305;28;20049;-79
2023/06/09 10:12:45;;;;;;;10.85;6.28;;;;;;;;;;5051172;28;20136;-78
2023/06/09 10:15:11;;;;;;;10.70;6.30;;;;;;;;;;5027782;28;20372;-77
2023/06/09 10:17:38;;;;;;;13.52;5.97;;;;;;;;;;5045421;28;20048;-78
2023/06/09 10:20:08;;;;;;;16.45;6.70;;;;;;;;;;5016830;28;20133;-78
2023/06/09 10:22:34;;;;;;;14.27;6.65;;;;;;;;;;5016380;28;20089;-78
2023/06/09 10:25:01;;;;;;;16.27;6.97;;;;;;;;;;5031163;28;20381;-78
2023/06/09 10:27:27;;;;;;;15.20;7.13;;;;;;;;;;5015995;28;20543;-78
2023/06/09 10:29:53;;;;;;;18.27;6.75;;;;;;;;;;5016307;28;20038;-78
2023/06/09 10:32:22;;;;;;;16.42;7.00;;;;;;;;;;5041521;28;20144;-78
2023/06/09 10:34:49;;;;;;;16.70;7.30;;;;;;;;;;5046948;28;20435;-77
2023/06/09 10:37:34;;;;;;;17.30;7.18;;;;;;;;;;5048465;28;20124;-78
2023/06/09 10:40:23;;;;;;;18.55;7.32;;;;;;;;;;5016609;28;20500;-80
2023/06/09 10:43:01;;;;;;;14.23;7.18;;;;;;;;;;5016158;28;20480;-78
2023/06/09 10:45:48;;;;;;;13.23;7.00;;;;;;;;;;5021245;28;20124;-79
2023/06/09 10:48:14;;;;;;;14.50;6.35;;;;;;;;;;5037527;28;20049;-78
2023/06/09 10:50:40;;;;;;;18.08;6.85;;;;;;;;;;5023967;28;20103;-78
2023/06/09 10:53:15;;;;;;;15.05;6.13;;;;;;;;;;5022493;28;20041;-77
2023/06/09 10:55:42;;;;;;;18.02;6.93;;;;;;;;;;5027899;28;20046;-77
2023/06/09 10:58:28;;;;;;;16.95;7.20;;;;;;;;;;5027410;28;20439;-77
2023/06/09 11:01:07;;;;;;;15.40;6.35;;;;;;;;;;5042579;28;20041;-77
2023/06/09 11:03:33;;;;;;;16.75;7.10;;;;;;;;;;5023790;28;20050;-77
2023/06/09 11:06:00;;;;;;;16.23;6.68;;;;;;;;;;5031204;28;20092;-77
2023/06/09 11:08:26;;;;;;;13.02;6.85;;;;;;;;;;5025731;28;20041;-77
2023/06/09 11:10:52;;;;;;;18.63;7.10;;;;;;;;;;5038532;28;20099;-77
2023/06/09 11:13:38;;;;;;;15.38;6.80;;;;;;;;;;5027869;28;20084;-77
2023/06/09 11:16:04;;;;;;;13.35;6.53;;;;;;;;;;5025300;28;20442;-77
2023/06/09 11:18:31;;;;;;;13.65;6.97;;;;;;;;;;5043209;28;20559;-77
2023/06/09 11:21:15;;;;;;;30.17;8.73;;;;;;;;;;5033672;28;20037;-77
2023/06/09 11:23:55;;;;;;;15.32;7.32;;;;;;;;;;5031352;28;20046;-77
2023/06/09 11:26:22;;;;;;;27.90;8.55;;;;;;;;;;5031294;28;20045;-77
2023/06/09 11:28:48;;;;;;;13.00;6.53;;;;;;;;;;5032492;28;20440;-77
2023/06/09 11:31:15;;;;;;;15.98;7.13;;;;;;;;;;5033291;28;20053;-77
2023/06/09 11:33:46;;;;;;;15.75;7.20;;;;;;;;;;5028477;28;20124;-76
2023/06/09 11:36:23;;;;;;;15.18;7.05;;;;;;;;;;5045070;28;20045;-77
2023/06/09 11:38:50;;;;;;;12.63;6.50;;;;;;;;;;5041929;28;20049;-76
2023/06/09 11:41:20;;;;;;;15.77;6.18;;;;;;;;;;5035583;28;20056;-77
2023/06/09 11:43:50;;;;;;;16.58;6.88;;;;;;;;;;5034879;28;20049;-77
2023/06/09 11:46:17;;;;;;;16.35;6.88;;;;;;;;;;5033345;28;20049;-77
2023/06/09 11:48:58;;;;;;;18.10;6.47;;;;;;;;;;5029154;28;20115;-76
2023/06/09 11:51:24;;;;;;;17.10;7.13;;;;;;;;;;5027905;28;20136;-77
2023/06/09 11:53:50;;;;;;;18.75;7.10;;;;;;;;;;5033685;28;20042;-77
2023/06/09 11:56:16;;;;;;;11.48;6.05;;;;;;;;;;5013959;28;20041;-77
2023/06/09 11:58:42;;;;;;;16.75;7.30;;;;;;;;;;5035423;28;20380;-77
2023/06/09 12:01:09;;;;;;;13.95;7.07;;;;;;;;;;5033392;28;20112;-77
2023/06/09 12:03:36;;;;;;;15.43;6.55;;;;;;;;;;5037564;28;20051;-77
2023/06/09 12:06:03;;;;;;;17.48;7.30;;;;;;;;;;5033419;28;20044;-77
2023/06/09 12:08:29;;;;;;;13.90;6.95;;;;;;;;;;5032219;28;20052;-77
2023/06/09 12:10:55;;;;;;;13.25;6.50;;;;;;;;;;5016293;28;20550;-77
2023/06/09 12:13:21;;;;;;;13.75;6.60;;;;;;;;;;5025952;28;20045;-77
2023/06/09 12:15:54;;;;;;;18.38;6.78;;;;;;;;;;5036763;28;20495;-77
2023/06/09 12:18:21;;;;;;;13.02;6.70;;;;;;;;;;5038777;28;20053;-78
2023/06/09 12:20:47;;;;;;;16.25;6.60;;;;;;;;;;5030579;28;20540;-77
2023/06/09 12:23:14;;;;;;;16.25;6.43;;;;;;;;;;5033295;28;20119;-78
2023/06/09 12:25:41;;;;;;;14.27;7.20;;;;;;;;;;5033495;28;20499;-77
2023/06/09 12:28:15;;;;;;;15.13;6.85;;;;;;;;;;5041002;28;20037;-77
2023/06/09 12:30:47;;;;;;;13.20;6.13;;;;;;;;;;5039008;28;20038;-77
2023/06/09 12:33:18;;;;;;;12.50;6.50;;;;;;;;;;5023741;28;20120;-78
2023/06/09 12:35:46;;;;;;;15.43;6.57;;;;;;;;;;5033744;28;20042;-78
2023/06/09 12:38:16;;;;;;;15.52;6.40;;;;;;;;;;5014499;28;20078;-78
2023/06/09 12:40:47;;;;;;;15.57;6.95;;;;;;;;;;5028619;28;20041;-77
2023/06/09 12:43:14;;;;;;;14.23;6.43;;;;;;;;;;5041927;28;20482;-79
2023/06/09 12:45:43;;;;;;;13.98;6.50;;;;;;;;;;5040835;28;20040;-78
2023/06/09 12:48:09;;;;;;;13.90;6.55;;;;;;;;;;5035863;28;20102;-78
2023/06/09 12:50:36;;;;;;;16.75;7.30;;;;;;;;;;5032734;28;20038;-78
2023/06/09 12:53:02;;;;;;;17.88;6.45;;;;;;;;;;5030230;28;20120;-78
2023/06/09 12:55:28;;;;;;;20.05;7.10;;;;;;;;;;5033010;28;20047;-78
2023/06/09 12:57:54;;;;;;;14.15;6.70;;;;;;;;;;5029212;28;20185;-78
2023/06/09 13:00:20;;;;;;;14.35;6.47;;;;;;;;;;5023247;28;20049;-78
2023/06/09 13:02:47;;;;;;;14.32;6.40;;;;;;;;;;5032537;28;20042;-78
2023/06/09 13:05:13;;;;;;;17.00;6.93;;;;;;;;;;5032916;28;20056;-78
2023/06/09 13:07:39;;;;;;;14.52;6.57;;;;;;;;;;5032778;28;20041;-79
2023/06/09 13:10:05;;;;;;;14.00;6.15;;;;;;;;;;5022820;28;20092;-77
2023/06/09 13:12:31;;;;;;;16.30;6.70;;;;;;;;;;5029838;28;20041;-78
2023/06/09 13:14:57;;;;;;;14.18;6.72;;;;;;;;;;5030820;28;20500;-78
2023/06/09 13:17:23;;;;;;;15.77;7.57;;;;;;;;;;5033240;28;20495;-79
2023/06/09 13:19:49;;;;;;;16.55;6.93;;;;;;;;;;5032743;28;20064;-79
2023/06/09 13:22:15;;;;;;;16.20;7.32;;;;;;;;;;5006681;28;20042;-79
2023/06/09 13:24:41;;;;;;;12.98;7.18;;;;;;;;;;5024361;28;20052;-78
2023/06/09 13:27:07;;;;;;;16.20;6.97;;;;;;;;;;5035207;28;20043;-78
2023/06/09 13:29:33;;;;;;;19.10;7.25;;;;;;;;;;5031260;28;20116;-77
2023/06/09 13:31:59;;;;;;;16.63;6.80;;;;;;;;;;5038097;28;20057;-78
2023/06/09 13:34:25;;;;;;;14.00;6.72;;;;;;;;;;5036990;28;20053;-77
2023/06/09 13:36:52;;;;;;;15.57;7.18;;;;;;;;;;5004121;28;20057;-77
2023/06/09 13:39:18;;;;;;;14.07;6.55;;;;;;;;;;5040853;28;20069;-77
2023/06/09 13:41:44;;;;;;;15.20;6.80;;;;;;;;;;5010657;28;20144;-77
2023/06/09 13:44:11;;;;;;;13.98;6.80;;;;;;;;;;5032360;28;20438;-77
2023/06/09 13:46:37;;;;;;;13.65;6.82;;;;;;;;;;5026053;28;20050;-77
2023/06/09 13:49:03;;;;;;;17.02;7.28;;;;;;;;;;5026169;28;20483;-77
2023/06/09 13:51:30;;;;;;;16.58;6.20;;;;;;;;;;5036517;28;20041;-77
2023/06/09 13:53:56;;;;;;;16.90;7.10;;;;;;;;;;5047240;28;20064;-77
2023/06/09 13:56:22;;;;;;;14.85;6.93;;;;;;;;;;5033554;28;20061;-77
2023/06/09 13:58:48;;;;;;;19.50;7.57;;;;;;;;;;5022477;28;20108;-78
2023/06/09 14:01:14;;;;;;;14.52;7.32;;;;;;;;;;5029544;28;20124;-78
2023/06/09 14:03:41;;;;;;;16.05;7.32;;;;;;;;;;5035012;28;20046;-78
2023/06/09 14:06:07;;;;;;;12.77;6.78;;;;;;;;;;5038920;28;20049;-78
2023/06/09 14:08:33;;;;;;;11.52;6.30;;;;;;;;;;5030311;28;20045;-77
2023/06/09 14:10:59;;;;;;;12.82;6.38;;;;;;;;;;5027510;28;20124;-77
2023/06/09 14:13:25;;;;;;;11.73;6.03;;;;;;;;;;5020117;28;20400;-77
2023/06/09 14:15:52;;;;;;;14.50;6.53;;;;;;;;;;5029659;28;20550;-76
2023/06/09 14:18:18;;;;;;;12.70;5.60;;;;;;;;;;5033091;28;20072;-77
2023/06/09 14:20:44;;;;;;;11.73;5.93;;;;;;;;;;5033134;28;20044;-77
2023/06/09 14:23:11;;;;;;;12.18;5.65;;;;;;;;;;5040225;28;20037;-78
2023/06/09 14:25:37;;;;;;;16.45;6.28;;;;;;;;;;5028183;28;20048;-77
2023/06/09 14:28:03;;;;;;;10.57;5.55;;;;;;;;;;5036957;28;20037;-77
2023/06/09 14:30:29;;;;;;;11.95;5.30;;;;;;;;;;5044552;28;20048;-77